Time;durP1;ratioP1;P1;durP2;ratioP2;P2;SDS_P1;SDS_P2;PMS_P1;PMS_P2;Temp;Humidity;BMP_temperature;BMP_pressure;BME280_temperature;BME280_humidity;BME280_pressure;Samples;Min_cycle;Max_cycle;Signal;HPM_P1;HPM_P2
2022/06/07 00:02:24;;;;;;;5.60;5.10;;;;;;;;;;5053998;28;20201;-65
2022/06/07 00:04:51;;;;;;;6.23;5.63;;;;;;;;;;5054503;28;20175;-65
2022/06/07 00:07:17;;;;;;;6.03;5.00;;;;;;;;;;5053891;28;20174;-65
2022/06/07 00:09:43;;;;;;;9.60;5.80;;;;;;;;;;5054220;28;20716;-65
2022/06/07 00:12:09;;;;;;;6.57;5.60;;;;;;;;;;5053423;28;20261;-65
2022/06/07 00:14:35;;;;;;;7.10;6.40;;;;;;;;;;5053579;28;20641;-65
2022/06/07 00:17:02;;;;;;;7.23;5.70;;;;;;;;;;5053928;28;20182;-64
2022/06/07 00:19:28;;;;;;;6.17;5.57;;;;;;;;;;5054155;28;20643;-65
2022/06/07 00:21:54;;;;;;;7.90;6.10;;;;;;;;;;5053991;28;20198;-65
2022/06/07 00:24:20;;;;;;;6.93;6.07;;;;;;;;;;5053317;28;20253;-65
2022/06/07 00:26:46;;;;;;;6.80;5.97;;;;;;;;;;5053565;28;20217;-65
2022/06/07 00:29:13;;;;;;;7.50;6.70;;;;;;;;;;5053643;28;20324;-66
2022/06/07 00:31:42;;;;;;;7.50;6.13;;;;;;;;;;5053389;28;20190;-65
2022/06/07 00:34:08;;;;;;;7.77;5.90;;;;;;;;;;5035318;28;20175;-64
2022/06/07 00:36:35;;;;;;;7.10;6.27;;;;;;;;;;5053713;28;20182;-65
2022/06/07 00:39:01;;;;;;;7.87;6.23;;;;;;;;;;5035294;28;20205;-65
2022/06/07 00:41:27;;;;;;;7.93;6.80;;;;;;;;;;5035673;28;20202;-66
2022/06/07 00:44:19;;;;;;;8.73;7.73;;;;;;;;;;5035597;28;20227;-65
2022/06/07 00:46:46;;;;;;;9.73;8.43;;;;;;;;;;5053716;28;20186;-65
2022/06/07 00:49:13;;;;;;;11.50;8.77;;;;;;;;;;5035581;28;20355;-65
2022/06/07 00:51:39;;;;;;;11.83;9.77;;;;;;;;;;5053557;28;20282;-65
2022/06/07 00:54:05;;;;;;;12.27;9.43;;;;;;;;;;5053170;28;20615;-65
2022/06/07 00:56:31;;;;;;;11.13;9.83;;;;;;;;;;5053770;28;20179;-66
2022/06/07 00:59:00;;;;;;;12.10;9.90;;;;;;;;;;5053263;28;20697;-67
2022/06/07 01:01:27;;;;;;;12.07;9.97;;;;;;;;;;5053310;28;20214;-65
2022/06/07 01:03:53;;;;;;;11.57;9.67;;;;;;;;;;5053933;28;20181;-65
2022/06/07 01:11:49;;;;;;;11.50;10.07;;;;;;;;;;5053318;28;20296;-65
2022/06/07 01:14:15;;;;;;;12.83;10.17;;;;;;;;;;5053183;28;20179;-66
2022/06/07 01:16:41;;;;;;;11.37;9.43;;;;;;;;;;5035312;28;20178;-65
2022/06/07 01:19:07;;;;;;;13.97;9.90;;;;;;;;;;5052858;28;20199;-65
2022/06/07 01:21:37;;;;;;;15.20;9.63;;;;;;;;;;5053173;28;20198;-65
2022/06/07 01:24:04;;;;;;;15.27;10.80;;;;;;;;;;5053943;28;20186;-65
2022/06/07 01:26:30;;;;;;;13.73;10.53;;;;;;;;;;5056833;28;20187;-65
2022/06/07 01:28:56;;;;;;;17.20;12.20;;;;;;;;;;5056823;28;20187;-65
2022/06/07 01:31:22;;;;;;;13.00;10.33;;;;;;;;;;5057007;28;20547;-65
2022/06/07 01:33:48;;;;;;;13.10;10.83;;;;;;;;;;5057028;28;20590;-65
2022/06/07 01:36:15;;;;;;;13.20;10.30;;;;;;;;;;5056466;28;20233;-65
2022/06/07 01:38:43;;;;;;;13.60;11.03;;;;;;;;;;5038609;28;20198;-65
2022/06/07 01:43:54;;;;;;;13.40;9.90;;;;;;;;;;5057228;28;20589;-65
2022/06/07 01:46:20;;;;;;;13.17;10.10;;;;;;;;;;5056858;28;20665;-65
2022/06/07 01:48:48;;;;;;;12.33;9.43;;;;;;;;;;5056661;28;20175;-65
2022/06/07 01:51:14;;;;;;;12.40;9.70;;;;;;;;;;5038390;28;20583;-65
2022/06/07 01:53:40;;;;;;;10.47;8.57;;;;;;;;;;5056481;28;20178;-65
2022/06/07 01:56:11;;;;;;;11.87;9.07;;;;;;;;;;5056285;28;20185;-65
2022/06/07 01:58:38;;;;;;;12.60;9.10;;;;;;;;;;5056536;28;20570;-65
2022/06/07 02:01:04;;;;;;;12.30;9.57;;;;;;;;;;5058583;28;20177;-65
2022/06/07 02:03:30;;;;;;;10.70;9.30;;;;;;;;;;5058791;28;20555;-65
2022/06/07 02:05:57;;;;;;;11.80;8.33;;;;;;;;;;5040925;28;20174;-65
2022/06/07 02:08:23;;;;;;;10.97;8.80;;;;;;;;;;5057515;28;20182;-65
2022/06/07 02:10:49;;;;;;;13.13;8.73;;;;;;;;;;5038932;28;20221;-65
2022/06/07 02:13:15;;;;;;;14.20;9.20;;;;;;;;;;5056235;28;20205;-65
2022/06/07 02:15:42;;;;;;;10.77;8.73;;;;;;;;;;5056375;28;20174;-66
2022/06/07 02:18:08;;;;;;;10.30;8.90;;;;;;;;;;5055891;28;20260;-65
2022/06/07 02:20:34;;;;;;;12.10;8.53;;;;;;;;;;5055892;28;20265;-66
2022/06/07 02:23:00;;;;;;;12.13;9.17;;;;;;;;;;5055936;28;20222;-65
2022/06/07 02:25:26;;;;;;;9.20;8.20;;;;;;;;;;5055674;28;20619;-65
2022/06/07 02:27:53;;;;;;;10.57;9.00;;;;;;;;;;5055698;28;20174;-65
2022/06/07 02:30:19;;;;;;;10.33;8.63;;;;;;;;;;5055523;28;20181;-65
2022/06/07 02:32:45;;;;;;;10.23;9.00;;;;;;;;;;5055557;28;20685;-66
2022/06/07 02:35:11;;;;;;;9.67;8.13;;;;;;;;;;5054644;28;20631;-65
2022/06/07 02:37:38;;;;;;;10.17;8.13;;;;;;;;;;5055101;28;20241;-65
2022/06/07 02:40:05;;;;;;;11.37;8.70;;;;;;;;;;5055645;28;20212;-64
2022/06/07 02:42:31;;;;;;;9.80;8.40;;;;;;;;;;5055314;28;20201;-66
2022/06/07 02:44:58;;;;;;;13.90;8.57;;;;;;;;;;5055542;28;20171;-64
2022/06/07 02:47:24;;;;;;;10.03;7.63;;;;;;;;;;5055432;28;20225;-65
2022/06/07 02:49:52;;;;;;;9.67;7.10;;;;;;;;;;5055444;28;20185;-65
2022/06/07 02:52:18;;;;;;;9.00;6.87;;;;;;;;;;5055568;28;20209;-65
2022/06/07 02:54:44;;;;;;;6.50;5.90;;;;;;;;;;5055349;28;20257;-65
2022/06/07 02:57:10;;;;;;;9.37;6.80;;;;;;;;;;5055051;28;20177;-66
2022/06/07 02:59:35;;;;;;;7.40;6.03;;;;;;;;;;5055092;28;20177;-65
2022/06/07 03:02:01;;;;;;;9.03;5.60;;;;;;;;;;5055186;28;20190;-65
2022/06/07 03:04:27;;;;;;;8.67;6.20;;;;;;;;;;5054871;28;20649;-66
2022/06/07 03:06:53;;;;;;;7.90;5.20;;;;;;;;;;5055063;28;20179;-67
2022/06/07 03:09:19;;;;;;;6.17;5.00;;;;;;;;;;5037144;28;20201;-66
2022/06/07 03:11:45;;;;;;;6.90;5.37;;;;;;;;;;5055151;28;20337;-65
2022/06/07 03:14:12;;;;;;;6.13;5.43;;;;;;;;;;5037472;28;20674;-65
2022/06/07 03:16:38;;;;;;;7.53;5.50;;;;;;;;;;5055196;28;20227;-65
2022/06/07 03:19:04;;;;;;;5.23;4.70;;;;;;;;;;5056189;28;20198;-67
2022/06/07 03:21:30;;;;;;;5.03;4.53;;;;;;;;;;5037678;28;20199;-65
2022/06/07 03:23:56;;;;;;;8.00;4.43;;;;;;;;;;5055759;28;20182;-65
2022/06/07 03:26:22;;;;;;;5.53;4.60;;;;;;;;;;5055670;28;20178;-66
2022/06/07 03:28:48;;;;;;;6.57;4.73;;;;;;;;;;5037906;28;20298;-65
2022/06/07 03:31:15;;;;;;;4.70;4.20;;;;;;;;;;5055072;28;20262;-65
2022/06/07 03:33:42;;;;;;;5.10;4.60;;;;;;;;;;5037490;28;20232;-66
2022/06/07 03:36:12;;;;;;;4.73;4.30;;;;;;;;;;5054792;28;20187;-63
2022/06/07 03:38:39;;;;;;;5.43;4.37;;;;;;;;;;5054923;28;20202;-66
2022/06/07 03:41:06;;;;;;;4.23;3.83;;;;;;;;;;5037462;28;20217;-65
2022/06/07 03:43:32;;;;;;;4.03;3.67;;;;;;;;;;5055363;28;20268;-66
2022/06/07 03:46:06;;;;;;;4.87;3.80;;;;;;;;;;5054072;28;20189;-66
2022/06/07 03:48:32;;;;;;;5.17;4.00;;;;;;;;;;5054086;28;20170;-67
2022/06/07 03:50:58;;;;;;;6.20;3.90;;;;;;;;;;5036228;28;20533;-66
2022/06/07 03:53:24;;;;;;;6.77;4.03;;;;;;;;;;5053947;28;20232;-66
2022/06/07 03:55:53;;;;;;;3.67;3.30;;;;;;;;;;5036254;28;20182;-65
2022/06/07 03:58:19;;;;;;;4.27;3.37;;;;;;;;;;5053913;28;20573;-65
2022/06/07 04:00:45;;;;;;;4.23;3.57;;;;;;;;;;5054267;28;20179;-65
2022/06/07 04:03:11;;;;;;;6.17;3.73;;;;;;;;;;5054196;28;20194;-66
2022/06/07 04:05:41;;;;;;;5.50;3.50;;;;;;;;;;5054108;28;20232;-66
2022/06/07 04:08:10;;;;;;;4.07;3.20;;;;;;;;;;5054016;28;20178;-65
2022/06/07 04:10:36;;;;;;;9.13;3.90;;;;;;;;;;5053697;28;20258;-66
2022/06/07 04:13:02;;;;;;;4.40;3.40;;;;;;;;;;5053403;28;20663;-65
2022/06/07 04:15:28;;;;;;;5.57;3.37;;;;;;;;;;5053762;28;20188;-65
2022/06/07 04:17:54;;;;;;;4.17;3.27;;;;;;;;;;5054118;28;20255;-65
2022/06/07 04:20:21;;;;;;;3.63;3.13;;;;;;;;;;5053859;28;20178;-66
2022/06/07 04:22:47;;;;;;;3.90;3.00;;;;;;;;;;5053643;28;20222;-65
2022/06/07 04:25:13;;;;;;;5.87;3.57;;;;;;;;;;5053650;28;20210;-65
2022/06/07 04:27:39;;;;;;;4.83;3.80;;;;;;;;;;5053372;28;20182;-65
2022/06/07 04:30:05;;;;;;;6.77;4.80;;;;;;;;;;5035603;28;20182;-65
2022/06/07 04:32:32;;;;;;;7.23;4.13;;;;;;;;;;5053380;28;20205;-65
2022/06/07 04:34:58;;;;;;;4.43;3.53;;;;;;;;;;5035663;28;20182;-65
2022/06/07 04:37:24;;;;;;;7.10;4.17;;;;;;;;;;5053644;28;20265;-65
2022/06/07 04:39:50;;;;;;;6.50;3.53;;;;;;;;;;5053870;28;20253;-65
2022/06/07 04:42:16;;;;;;;5.00;3.83;;;;;;;;;;5035732;28;20556;-65
2022/06/07 04:44:42;;;;;;;7.80;4.40;;;;;;;;;;5053501;28;20254;-65
2022/06/07 04:47:08;;;;;;;6.00;3.50;;;;;;;;;;5054253;28;20607;-67
2022/06/07 04:49:35;;;;;;;6.40;4.07;;;;;;;;;;5053326;28;20214;-66
2022/06/07 04:52:01;;;;;;;5.57;3.00;;;;;;;;;;5053282;28;20198;-65
2022/06/07 04:54:27;;;;;;;10.43;4.83;;;;;;;;;;5035448;28;20669;-66
2022/06/07 04:56:55;;;;;;;17.53;9.23;;;;;;;;;;5035654;28;20712;-66
2022/06/07 04:59:21;;;;;;;8.83;5.00;;;;;;;;;;5054702;28;20285;-66
2022/06/07 05:01:47;;;;;;;24.40;11.23;;;;;;;;;;5057073;28;20225;-65
2022/06/07 05:04:13;;;;;;;11.20;6.47;;;;;;;;;;5039118;28;20178;-65
2022/06/07 05:06:40;;;;;;;12.03;6.30;;;;;;;;;;5056982;28;20177;-65
2022/06/07 05:09:10;;;;;;;4.20;3.07;;;;;;;;;;5039290;28;20183;-65
2022/06/07 05:11:36;;;;;;;5.83;3.70;;;;;;;;;;5057568;28;20283;-66
2022/06/07 05:14:03;;;;;;;3.87;3.23;;;;;;;;;;5057943;28;20611;-65
2022/06/07 05:16:29;;;;;;;5.70;3.40;;;;;;;;;;5057718;28;20189;-66
2022/06/07 05:18:55;;;;;;;4.37;3.03;;;;;;;;;;5056836;28;20230;-66
2022/06/07 05:21:22;;;;;;;4.63;3.43;;;;;;;;;;5057051;28;20182;-65
2022/06/07 05:23:49;;;;;;;6.03;3.13;;;;;;;;;;5057264;28;20183;-65
2022/06/07 05:26:21;;;;;;;5.63;2.80;;;;;;;;;;5038985;28;20265;-65
2022/06/07 05:28:47;;;;;;;3.43;3.13;;;;;;;;;;5057110;28;20179;-65
2022/06/07 05:31:13;;;;;;;3.33;2.80;;;;;;;;;;5056739;28;20705;-64
2022/06/07 05:33:39;;;;;;;3.47;3.00;;;;;;;;;;5039641;28;20182;-65
2022/06/07 05:36:06;;;;;;;6.00;2.97;;;;;;;;;;5039324;28;20187;-66
2022/06/07 05:38:32;;;;;;;3.70;2.73;;;;;;;;;;5054491;22;20311;-65
2022/06/07 05:40:58;;;;;;;4.00;3.23;;;;;;;;;;5056149;28;20181;-67
2022/06/07 05:43:24;;;;;;;7.53;4.57;;;;;;;;;;5056460;28;20666;-68
2022/06/07 05:45:51;;;;;;;5.37;3.40;;;;;;;;;;5056378;28;20524;-68
2022/06/07 05:48:18;;;;;;;4.77;3.20;;;;;;;;;;5055966;28;20194;-67
2022/06/07 05:50:44;;;;;;;5.10;3.23;;;;;;;;;;5055879;28;20183;-67
2022/06/07 05:53:10;;;;;;;4.23;3.07;;;;;;;;;;5056471;28;20175;-67
2022/06/07 05:55:36;;;;;;;11.67;7.30;;;;;;;;;;5056078;28;20182;-68
2022/06/07 05:58:02;;;;;;;9.57;5.83;;;;;;;;;;5056049;28;20211;-68
2022/06/07 06:00:30;;;;;;;6.23;4.00;;;;;;;;;;5056264;28;20189;-67
2022/06/07 06:02:56;;;;;;;3.33;3.00;;;;;;;;;;5055791;28;20185;-67
2022/06/07 06:05:22;;;;;;;4.37;3.10;;;;;;;;;;5056005;28;20262;-67
2022/06/07 06:10:33;;;;;;;3.80;2.97;;;;;;;;;;5055535;28;20186;-68
2022/06/07 06:12:59;;;;;;;6.33;2.80;;;;;;;;;;5055567;28;20262;-68
2022/06/07 06:15:25;;;;;;;3.30;2.87;;;;;;;;;;5055468;28;20265;-66
2022/06/07 06:17:51;;;;;;;6.17;3.10;;;;;;;;;;5055675;28;20198;-67
2022/06/07 06:20:17;;;;;;;10.83;6.17;;;;;;;;;;5055764;28;20179;-67
2022/06/07 06:22:43;;;;;;;21.90;11.60;;;;;;;;;;5055625;28;20175;-67
2022/06/07 06:25:09;;;;;;;9.87;5.93;;;;;;;;;;5037662;28;20606;-67
2022/06/07 06:27:37;;;;;;;6.80;4.03;;;;;;;;;;5037630;28;20784;-67
2022/06/07 06:30:03;;;;;;;3.20;2.90;;;;;;;;;;5055347;28;20265;-67
2022/06/07 06:32:29;;;;;;;7.07;3.83;;;;;;;;;;5055397;28;20231;-68
2022/06/07 06:34:55;;;;;;;4.53;3.00;;;;;;;;;;5037527;28;20669;-67
2022/06/07 06:37:21;;;;;;;3.40;2.97;;;;;;;;;;5037343;28;20178;-67
2022/06/07 06:39:47;;;;;;;3.77;2.90;;;;;;;;;;5055005;28;20221;-67
2022/06/07 06:42:13;;;;;;;3.20;2.90;;;;;;;;;;5055285;28;20189;-67
2022/06/07 06:44:39;;;;;;;3.97;3.17;;;;;;;;;;5055255;28;20216;-67
2022/06/07 06:47:07;;;;;;;7.40;3.10;;;;;;;;;;5055202;28;20584;-66
2022/06/07 06:49:33;;;;;;;3.70;3.40;;;;;;;;;;5055038;28;20618;-67
2022/06/07 06:51:59;;;;;;;5.20;3.67;;;;;;;;;;5037243;28;20178;-67
2022/06/07 06:54:26;;;;;;;4.23;3.57;;;;;;;;;;5037214;28;20190;-66
2022/06/07 06:56:52;;;;;;;8.27;4.40;;;;;;;;;;5054911;28;20191;-66
2022/06/07 06:59:18;;;;;;;5.53;4.40;;;;;;;;;;5055058;28;20206;-66
2022/06/07 07:01:44;;;;;;;4.33;3.30;;;;;;;;;;5037175;28;20190;-65
2022/06/07 07:04:13;;;;;;;5.07;3.00;;;;;;;;;;5055044;28;20178;-67
2022/06/07 07:06:39;;;;;;;4.87;3.00;;;;;;;;;;5054938;28;20255;-66
2022/06/07 07:09:06;;;;;;;4.77;3.23;;;;;;;;;;5036995;28;20206;-66
2022/06/07 07:11:35;;;;;;;5.10;3.70;;;;;;;;;;5037007;28;20185;-68
2022/06/07 07:14:01;;;;;;;10.60;3.40;;;;;;;;;;5037252;28;20601;-67
2022/06/07 07:16:29;;;;;;;3.77;3.30;;;;;;;;;;5036909;28;20187;-67
2022/06/07 07:18:55;;;;;;;4.40;3.80;;;;;;;;;;5055018;28;20297;-67
2022/06/07 07:21:23;;;;;;;3.37;3.00;;;;;;;;;;5036248;28;20202;-66
2022/06/07 07:23:49;;;;;;;7.03;3.60;;;;;;;;;;5054758;28;20182;-67
2022/06/07 07:26:17;;;;;;;4.73;3.73;;;;;;;;;;5036765;28;20192;-66
2022/06/07 07:28:44;;;;;;;6.50;3.87;;;;;;;;;;5054681;28;20277;-67
2022/06/07 07:31:14;;;;;;;5.63;4.30;;;;;;;;;;5054454;28;20179;-67
2022/06/07 07:33:40;;;;;;;5.83;4.10;;;;;;;;;;5054800;28;20216;-66
2022/06/07 07:36:06;;;;;;;4.10;3.50;;;;;;;;;;5036769;28;20639;-67
2022/06/07 07:38:33;;;;;;;4.70;3.73;;;;;;;;;;5054372;28;20214;-66
2022/06/07 07:40:59;;;;;;;4.10;3.43;;;;;;;;;;5054370;28;20693;-67
2022/06/07 07:43:25;;;;;;;9.13;5.97;;;;;;;;;;5054473;28;20202;-67
2022/06/07 07:45:52;;;;;;;11.57;5.10;;;;;;;;;;5054025;28;20252;-66
2022/06/07 07:48:18;;;;;;;8.33;5.43;;;;;;;;;;5053832;28;20198;-66
2022/06/07 07:50:45;;;;;;;8.23;5.27;;;;;;;;;;5053554;28;20483;-66
2022/06/07 07:53:11;;;;;;;7.53;5.07;;;;;;;;;;5054303;28;20273;-67
2022/06/07 07:55:42;;;;;;;5.90;4.17;;;;;;;;;;5053572;28;20690;-67
2022/06/07 07:58:09;;;;;;;5.90;4.00;;;;;;;;;;5053976;28;20320;-67
2022/06/07 08:00:35;;;;;;;5.87;3.60;;;;;;;;;;5053745;28;20550;-67
2022/06/07 08:03:01;;;;;;;5.80;3.47;;;;;;;;;;5053840;28;20179;-67
2022/06/07 08:05:27;;;;;;;6.73;3.33;;;;;;;;;;5053922;28;20214;-66
2022/06/07 08:07:53;;;;;;;10.13;3.93;;;;;;;;;;5053590;28;20253;-66
2022/06/07 08:10:19;;;;;;;5.20;3.60;;;;;;;;;;5053726;28;20638;-66
2022/06/07 08:12:45;;;;;;;3.90;3.03;;;;;;;;;;5035750;28;20185;-66
2022/06/07 08:15:11;;;;;;;4.80;3.20;;;;;;;;;;5053774;28;20246;-66
2022/06/07 08:17:37;;;;;;;8.20;3.70;;;;;;;;;;5035509;28;20187;-66
2022/06/07 08:20:03;;;;;;;5.00;3.13;;;;;;;;;;5053177;28;20248;-66
2022/06/07 08:22:29;;;;;;;4.73;3.40;;;;;;;;;;5053372;28;20175;-66
2022/06/07 08:24:55;;;;;;;3.67;3.13;;;;;;;;;;5053669;28;20577;-66
2022/06/07 08:27:22;;;;;;;4.63;3.10;;;;;;;;;;5053408;28;20182;-67
2022/06/07 08:29:48;;;;;;;4.33;3.20;;;;;;;;;;5053206;28;20190;-66
2022/06/07 08:32:13;;;;;;;2.60;2.40;;;;;;;;;;5053455;28;20194;-66
2022/06/07 08:37:33;;;;;;;2.77;2.37;;;;;;;;;;5053418;28;20194;-66
2022/06/07 08:39:59;;;;;;;3.33;3.03;;;;;;;;;;5052934;28;20292;-66
2022/06/07 08:42:31;;;;;;;3.60;2.83;;;;;;;;;;5053304;28;20178;-67
2022/06/07 08:44:58;;;;;;;4.10;2.60;;;;;;;;;;5053240;28;20236;-66
2022/06/07 08:47:36;;;;;;;4.33;3.00;;;;;;;;;;5053416;28;20188;-66
2022/06/07 08:50:08;;;;;;;4.70;2.90;;;;;;;;;;5052976;28;20199;-66
2022/06/07 08:52:36;;;;;;;3.00;2.70;;;;;;;;;;5052992;28;20170;-67
2022/06/07 08:55:11;;;;;;;3.53;2.80;;;;;;;;;;5052969;28;20181;-66
2022/06/07 08:57:37;;;;;;;6.60;2.90;;;;;;;;;;5053545;28;20232;-67
2022/06/07 09:00:15;;;;;;;2.90;2.17;;;;;;;;;;5052822;28;20730;-67
2022/06/07 09:02:47;;;;;;;2.70;2.30;;;;;;;;;;5053273;28;20640;-67
2022/06/07 09:05:15;;;;;;;4.13;2.30;;;;;;;;;;5052830;28;20677;-66
2022/06/07 09:07:42;;;;;;;2.63;2.30;;;;;;;;;;5052975;28;20178;-66
2022/06/07 09:13:03;;;;;;;5.43;2.43;;;;;;;;;;5053234;28;20186;-67
2022/06/07 09:15:31;;;;;;;2.30;2.10;;;;;;;;;;5052734;28;20178;-67
2022/06/07 09:17:58;;;;;;;3.87;2.10;;;;;;;;;;5052311;28;20244;-67
2022/06/07 09:20:28;;;;;;;4.20;2.10;;;;;;;;;;5034859;28;20295;-66
2022/06/07 09:22:58;;;;;;;2.90;2.00;;;;;;;;;;5052525;28;20632;-66
2022/06/07 09:25:26;;;;;;;2.83;2.00;;;;;;;;;;5052674;28;20175;-67
2022/06/07 09:27:53;;;;;;;3.97;2.27;;;;;;;;;;5052872;28;20189;-66
2022/06/07 09:30:29;;;;;;;3.67;2.20;;;;;;;;;;5052522;28;20198;-67
2022/06/07 09:32:55;;;;;;;6.30;2.07;;;;;;;;;;5052646;28;20186;-67
2022/06/07 09:35:21;;;;;;;3.30;1.93;;;;;;;;;;5052956;28;20607;-66
2022/06/07 09:37:52;;;;;;;2.30;2.10;;;;;;;;;;5052637;28;20259;-66
2022/06/07 09:40:34;;;;;;;4.33;2.30;;;;;;;;;;5053173;28;20198;-67
2022/06/07 09:43:12;;;;;;;2.40;2.00;;;;;;;;;;5034541;28;20269;-66
2022/06/07 09:45:45;;;;;;;4.60;2.37;;;;;;;;;;5036359;28;20178;-66
2022/06/07 09:48:29;;;;;;;2.23;2.03;;;;;;;;;;5038300;28;20613;-66
2022/06/07 09:51:00;;;;;;;3.67;2.17;;;;;;;;;;5038216;28;20193;-66
2022/06/07 09:53:33;;;;;;;3.80;2.20;;;;;;;;;;5038169;28;20175;-66
2022/06/07 09:56:17;;;;;;;3.37;1.80;;;;;;;;;;5056405;28;20660;-67
2022/06/07 09:58:58;;;;;;;2.43;2.13;;;;;;;;;;5055828;28;20214;-67
2022/06/07 10:01:39;;;;;;;1.93;1.60;;;;;;;;;;5038143;28;20182;-67
2022/06/07 10:04:24;;;;;;;2.27;2.00;;;;;;;;;;5055776;28;20178;-67
2022/06/07 10:06:55;;;;;;;4.23;2.57;;;;;;;;;;5055873;28;20167;-66
2022/06/07 10:09:21;;;;;;;3.43;2.23;;;;;;;;;;5055712;28;20248;-65
2022/06/07 10:12:20;;;;;;;2.90;2.00;;;;;;;;;;5056389;28;20188;-66
2022/06/07 10:14:51;;;;;;;2.93;2.07;;;;;;;;;;5005646;28;20187;-67
2022/06/07 10:17:29;;;;;;;3.90;1.83;;;;;;;;;;5037788;28;20171;-66
2022/06/07 10:19:55;;;;;;;2.00;1.80;;;;;;;;;;5055638;28;20217;-66
2022/06/07 10:22:21;;;;;;;1.60;1.50;;;;;;;;;;5037743;28;20182;-66
2022/06/07 10:25:01;;;;;;;3.17;1.80;;;;;;;;;;5037606;28;20174;-66
2022/06/07 10:27:38;;;;;;;2.83;1.80;;;;;;;;;;5055798;28;20174;-66
2022/06/07 10:30:03;;;;;;;1.50;1.40;;;;;;;;;;5055736;28;20218;-66
2022/06/07 10:32:40;;;;;;;2.03;1.57;;;;;;;;;;5055390;28;20259;-66
2022/06/07 10:35:29;;;;;;;4.03;1.80;;;;;;;;;;5055898;28;20258;-67
2022/06/07 10:38:14;;;;;;;1.53;1.40;;;;;;;;;;5055279;28;20202;-66
2022/06/07 10:41:02;;;;;;;1.50;1.40;;;;;;;;;;5037498;28;20558;-67
2022/06/07 10:43:32;;;;;;;2.03;1.50;;;;;;;;;;5037114;28;20175;-67
2022/06/07 10:46:00;;;;;;;2.90;1.60;;;;;;;;;;5055046;28;20179;-66
2022/06/07 10:48:36;;;;;;;2.20;1.37;;;;;;;;;;5054933;28;20206;-67
2022/06/07 10:51:07;;;;;;;1.70;1.60;;;;;;;;;;5054922;28;20181;-66
2022/06/07 10:53:42;;;;;;;1.70;1.60;;;;;;;;;;5055563;28;20173;-66
2022/06/07 10:56:23;;;;;;;1.67;1.57;;;;;;;;;;5054189;28;20182;-66
2022/06/07 10:58:52;;;;;;;2.03;1.50;;;;;;;;;;5054768;28;20217;-66
2022/06/07 11:01:28;;;;;;;2.23;1.60;;;;;;;;;;5054678;28;20183;-67
2022/06/07 11:03:59;;;;;;;2.73;1.67;;;;;;;;;;5055307;28;20175;-66
2022/06/07 11:09:36;;;;;;;1.77;1.40;;;;;;;;;;5054660;28;20235;-66
2022/06/07 11:12:04;;;;;;;1.30;1.20;;;;;;;;;;5036842;28;20174;-66
2022/06/07 11:14:48;;;;;;;1.67;1.57;;;;;;;;;;5036708;28;20261;-66
2022/06/07 11:17:17;;;;;;;2.13;1.43;;;;;;;;;;5054595;28;20183;-66
2022/06/07 11:19:43;;;;;;;2.07;1.53;;;;;;;;;;5054312;28;20206;-66
2022/06/07 11:22:17;;;;;;;1.57;1.40;;;;;;;;;;5054509;28;20179;-66
2022/06/07 11:25:00;;;;;;;1.83;1.40;;;;;;;;;;5054508;28;20253;-67
2022/06/07 11:27:27;;;;;;;3.23;1.67;;;;;;;;;;5036358;28;20185;-66
2022/06/07 11:30:29;;;;;;;3.20;1.50;;;;;;;;;;5036311;28;20199;-67
2022/06/07 11:32:58;;;;;;;3.73;1.73;;;;;;;;;;4976631;28;20656;-67
2022/06/07 11:35:47;;;;;;;1.83;1.30;;;;;;;;;;5043847;28;20230;-66
2022/06/07 11:38:20;;;;;;;1.80;1.57;;;;;;;;;;5053893;28;20252;-66
2022/06/07 11:40:47;;;;;;;3.23;1.33;;;;;;;;;;5054407;28;20235;-66
2022/06/07 11:43:31;;;;;;;3.00;1.40;;;;;;;;;;5036100;28;20665;-66
2022/06/07 11:45:59;;;;;;;2.30;1.30;;;;;;;;;;5037282;28;20555;-66
2022/06/07 11:48:36;;;;;;;1.40;1.30;;;;;;;;;;5036008;28;20294;-66
2022/06/07 11:51:17;;;;;;;1.30;1.20;;;;;;;;;;5036039;28;20553;-67
2022/06/07 11:53:50;;;;;;;1.60;1.43;;;;;;;;;;5053882;28;20615;-66
2022/06/07 11:56:22;;;;;;;3.90;1.97;;;;;;;;;;5054105;28;20171;-66
2022/06/07 11:58:52;;;;;;;2.83;1.33;;;;;;;;;;5053873;28;20220;-65
2022/06/07 12:01:33;;;;;;;1.40;1.30;;;;;;;;;;5035823;28;20178;-66
2022/06/07 12:04:18;;;;;;;2.90;1.60;;;;;;;;;;5053643;28;20170;-67
2022/06/07 12:06:45;;;;;;;2.13;1.43;;;;;;;;;;5035676;28;20178;-66
2022/06/07 12:09:16;;;;;;;2.40;1.50;;;;;;;;;;5035237;28;20212;-66
2022/06/07 12:11:43;;;;;;;1.93;1.47;;;;;;;;;;5054669;28;20178;-66
2022/06/07 12:14:09;;;;;;;1.33;1.23;;;;;;;;;;5053579;28;20210;-66
2022/06/07 12:16:35;;;;;;;1.90;1.67;;;;;;;;;;5053597;28;20182;-66
2022/06/07 12:19:03;;;;;;;2.17;1.30;;;;;;;;;;5035318;28;20233;-66
2022/06/07 12:21:32;;;;;;;3.73;1.67;;;;;;;;;;5053428;28;20178;-66
2022/06/07 12:24:03;;;;;;;3.27;1.80;;;;;;;;;;5053422;28;20175;-66
2022/06/07 12:26:30;;;;;;;4.47;1.30;;;;;;;;;;5053782;28;20182;-66
2022/06/07 12:29:00;;;;;;;1.63;1.33;;;;;;;;;;5035326;28;20690;-66
2022/06/07 12:31:28;;;;;;;1.53;1.43;;;;;;;;;;5053205;28;20257;-66
2022/06/07 12:33:56;;;;;;;1.67;1.40;;;;;;;;;;5053520;28;20551;-66
2022/06/07 12:36:24;;;;;;;1.50;1.40;;;;;;;;;;5053513;28;20182;-66
2022/06/07 12:38:51;;;;;;;3.20;2.00;;;;;;;;;;5035046;28;20222;-66
2022/06/07 12:41:25;;;;;;;2.10;1.80;;;;;;;;;;5053152;28;20174;-66
2022/06/07 12:43:53;;;;;;;3.97;1.60;;;;;;;;;;5053209;28;20182;-66
2022/06/07 12:46:21;;;;;;;1.50;1.40;;;;;;;;;;5053004;28;20670;-66
2022/06/07 12:48:48;;;;;;;2.43;1.43;;;;;;;;;;5035246;28;20756;-67
2022/06/07 12:51:28;;;;;;;1.60;1.50;;;;;;;;;;5052943;28;20272;-66
2022/06/07 12:53:59;;;;;;;1.50;1.40;;;;;;;;;;5035705;28;20200;-66
2022/06/07 12:56:28;;;;;;;1.70;1.60;;;;;;;;;;5035085;28;20182;-66
2022/06/07 12:58:56;;;;;;;2.17;1.70;;;;;;;;;;5035051;28;20305;-66
2022/06/07 13:01:29;;;;;;;2.90;1.87;;;;;;;;;;5035217;28;20569;-66
2022/06/07 13:03:56;;;;;;;2.93;2.10;;;;;;;;;;5053123;28;20581;-67
2022/06/07 13:06:23;;;;;;;2.53;2.07;;;;;;;;;;5035371;28;20190;-66
2022/06/07 13:08:58;;;;;;;5.00;2.37;;;;;;;;;;5053027;28;20198;-66
2022/06/07 13:11:24;;;;;;;2.73;2.10;;;;;;;;;;5053282;28;20184;-66
2022/06/07 13:13:52;;;;;;;2.63;1.90;;;;;;;;;;5035215;28;20273;-66
2022/06/07 13:16:17;;;;;;;3.70;2.17;;;;;;;;;;5053115;28;20261;-66
2022/06/07 13:19:02;;;;;;;2.80;2.10;;;;;;;;;;5052951;28;20245;-66
2022/06/07 13:21:37;;;;;;;4.00;2.67;;;;;;;;;;5056037;28;20174;-66
2022/06/07 13:24:03;;;;;;;6.33;2.60;;;;;;;;;;5056794;28;20722;-66
2022/06/07 13:26:31;;;;;;;3.30;2.73;;;;;;;;;;5056983;28;20183;-66
2022/06/07 13:29:09;;;;;;;2.83;2.07;;;;;;;;;;5056601;28;20726;-66
2022/06/07 13:31:44;;;;;;;2.80;1.87;;;;;;;;;;5056602;28;20206;-66
2022/06/07 13:34:19;;;;;;;7.03;2.67;;;;;;;;;;5038581;28;20186;-66
2022/06/07 13:36:46;;;;;;;3.47;2.03;;;;;;;;;;5038646;28;20190;-66
2022/06/07 13:39:20;;;;;;;2.50;1.90;;;;;;;;;;5056351;28;20734;-66
2022/06/07 13:41:48;;;;;;;3.40;2.93;;;;;;;;;;5056545;28;20550;-66
2022/06/07 13:44:14;;;;;;;4.23;2.73;;;;;;;;;;5056352;28;20237;-67
2022/06/07 13:46:51;;;;;;;2.63;2.27;;;;;;;;;;5038411;28;20183;-66
2022/06/07 13:54:59;;;;;;;2.10;2.00;;;;;;;;;;5056155;28;20208;-68
2022/06/07 13:57:25;;;;;;;2.87;1.80;;;;;;;;;;5056318;28;20174;-66
2022/06/07 13:59:51;;;;;;;2.33;1.60;;;;;;;;;;5056565;28;20218;-66
2022/06/07 14:02:17;;;;;;;1.80;1.60;;;;;;;;;;5056256;28;20249;-66
2022/06/07 14:04:43;;;;;;;2.10;1.70;;;;;;;;;;5056151;28;20167;-68
2022/06/07 14:07:11;;;;;;;4.10;1.90;;;;;;;;;;5055951;28;20174;-66
2022/06/07 14:09:37;;;;;;;2.30;1.87;;;;;;;;;;5055932;28;20674;-66
2022/06/07 14:12:04;;;;;;;2.23;1.70;;;;;;;;;;5055768;28;20210;-66
2022/06/07 14:14:30;;;;;;;2.13;1.97;;;;;;;;;;5055871;28;20174;-66
2022/06/07 14:16:56;;;;;;;2.37;1.80;;;;;;;;;;5037681;28;20186;-66
2022/06/07 14:19:44;;;;;;;2.80;2.60;;;;;;;;;;5055461;28;20225;-66
2022/06/07 14:22:19;;;;;;;2.80;2.57;;;;;;;;;;5055665;28;20182;-67
2022/06/07 14:24:45;;;;;;;2.93;1.93;;;;;;;;;;5056012;28;20178;-67
2022/06/07 14:27:13;;;;;;;2.30;2.03;;;;;;;;;;5055811;28;20178;-66
2022/06/07 14:29:39;;;;;;;2.53;1.90;;;;;;;;;;5055416;28;20202;-66
2022/06/07 14:32:05;;;;;;;1.43;1.30;;;;;;;;;;5055373;28;20187;-66
2022/06/07 14:34:31;;;;;;;1.70;1.60;;;;;;;;;;5055704;28;20202;-66
2022/06/07 14:36:59;;;;;;;1.07;1.03;;;;;;;;;;5037519;28;20194;-66
2022/06/07 14:39:25;;;;;;;1.20;1.20;;;;;;;;;;5037592;28;20238;-67
2022/06/07 14:41:51;;;;;;;1.03;1.03;;;;;;;;;;5037607;28;20182;-66
2022/06/07 14:44:17;;;;;;;3.00;1.00;;;;;;;;;;5055855;28;20240;-66
2022/06/07 14:46:44;;;;;;;1.50;1.40;;;;;;;;;;5038237;28;20179;-66
2022/06/07 14:49:18;;;;;;;1.13;1.13;;;;;;;;;;5037381;28;20198;-66
2022/06/07 14:51:45;;;;;;;1.17;1.13;;;;;;;;;;5055921;28;20178;-67
2022/06/07 14:54:17;;;;;;;1.00;1.00;;;;;;;;;;5055373;28;20178;-66
2022/06/07 14:56:43;;;;;;;1.17;1.07;;;;;;;;;;5055938;28;20175;-66
2022/06/07 14:59:09;;;;;;;1.43;1.30;;;;;;;;;;5056030;28;20257;-67
2022/06/07 15:01:36;;;;;;;2.83;1.40;;;;;;;;;;5037412;28;20529;-66
2022/06/07 15:04:03;;;;;;;3.30;1.70;;;;;;;;;;5037560;28;20553;-67
2022/06/07 15:06:30;;;;;;;1.60;1.50;;;;;;;;;;5037013;28;20239;-68
2022/06/07 15:08:57;;;;;;;1.93;1.50;;;;;;;;;;5036729;28;20228;-65
2022/06/07 15:11:35;;;;;;;1.30;1.20;;;;;;;;;;5054631;28;20206;-65
2022/06/07 15:14:02;;;;;;;1.10;1.10;;;;;;;;;;5036971;28;20185;-65
2022/06/07 15:16:30;;;;;;;1.20;1.10;;;;;;;;;;5054664;28;20178;-66